sensor_id;sensor_type;location;lat;lon;timestamp;temperature;humidity
23207;DHT22;11773;52.570;13.052;2022-12-26T00:02:17;10.30;99.90
23207;DHT22;11773;52.570;13.052;2022-12-26T00:04:46;10.30;99.90
23207;DHT22;11773;52.570;13.052;2022-12-26T00:07:17;10.30;99.90
23207;DHT22;11773;52.570;13.052;2022-12-26T00:09:47;10.30;99.90
23207;DHT22;11773;52.570;13.052;2022-12-26T00:12:16;10.40;99.90
23207;DHT22;11773;52.570;13.052;2022-12-26T00:14:46;10.40;99.90
23207;DHT22;11773;52.570;13.052;2022-12-26T00:17:15;10.40;99.90
23207;DHT22;11773;52.570;13.052;2022-12-26T00:19:45;10.40;99.90
23207;DHT22;11773;52.570;13.052;2022-12-26T00:22:14;10.40;99.90
23207;DHT22;11773;52.570;13.052;2022-12-26T00:24:45;10.40;99.90
23207;DHT22;11773;52.570;13.052;2022-12-26T00:27:15;10.40;99.90
23207;DHT22;11773;52.570;13.052;2022-12-26T00:29:46;10.40;99.90
23207;DHT22;11773;52.570;13.052;2022-12-26T00:32:16;10.40;99.90
23207;DHT22;11773;52.570;13.052;2022-12-26T00:34:45;10.30;99.90
23207;DHT22;11773;52.570;13.052;2022-12-26T00:37:15;10.40;99.90
23207;DHT22;11773;52.570;13.052;2022-12-26T00:39:44;10.40;99.90
23207;DHT22;11773;52.570;13.052;2022-12-26T00:42:14;10.40;99.90
23207;DHT22;11773;52.570;13.052;2022-12-26T00:44:43;10.40;99.90
23207;DHT22;11773;52.570;13.052;2022-12-26T00:47:13;10.50;99.90
23207;DHT22;11773;52.570;13.052;2022-12-26T00:49:42;10.50;99.90
23207;DHT22;11773;52.570;13.052;2022-12-26T00:52:14;10.40;99.90
23207;DHT22;11773;52.570;13.052;2022-12-26T00:54:43;10.50;99.90
23207;DHT22;11773;52.570;13.052;2022-12-26T00:57:13;10.40;99.90
23207;DHT22;11773;52.570;13.052;2022-12-26T00:59:42;10.50;99.90
23207;DHT22;11773;52.570;13.052;2022-12-26T01:02:11;10.50;99.90
23207;DHT22;11773;52.570;13.052;2022-12-26T01:04:59;10.50;99.90
23207;DHT22;11773;52.570;13.052;2022-12-26T01:07:31;10.50;99.90
23207;DHT22;11773;52.570;13.052;2022-12-26T01:10:06;10.60;99.90
23207;DHT22;11773;52.570;13.052;2022-12-26T01:12:38;10.60;99.90
23207;DHT22;11773;52.570;13.052;2022-12-26T01:15:08;10.50;99.90
23207;DHT22;11773;52.570;13.052;2022-12-26T01:17:37;10.60;99.90
23207;DHT22;11773;52.570;13.052;2022-12-26T01:20:07;10.60;99.90
23207;DHT22;11773;52.570;13.052;2022-12-26T01:22:37;10.60;99.90
23207;DHT22;11773;52.570;13.052;2022-12-26T01:25:07;10.60;99.90
23207;DHT22;11773;52.570;13.052;2022-12-26T01:27:38;10.60;99.90
23207;DHT22;11773;52.570;13.052;2022-12-26T01:30:08;10.60;99.90
23207;DHT22;11773;52.570;13.052;2022-12-26T01:32:38;10.60;99.90
23207;DHT22;11773;52.570;13.052;2022-12-26T01:35:08;10.50;99.90
23207;DHT22;11773;52.570;13.052;2022-12-26T01:37:37;10.50;99.90
23207;DHT22;11773;52.570;13.052;2022-12-26T01:40:07;10.50;99.90
23207;DHT22;11773;52.570;13.052;2022-12-26T01:42:40;10.60;99.90
23207;DHT22;11773;52.570;13.052;2022-12-26T01:45:27;10.50;99.90
23207;DHT22;11773;52.570;13.052;2022-12-26T01:51:02;10.50;99.90
23207;DHT22;11773;52.570;13.052;2022-12-26T01:53:31;10.60;99.90
23207;DHT22;11773;52.570;13.052;2022-12-26T01:56:06;10.60;99.90
23207;DHT22;11773;52.570;13.052;2022-12-26T01:58:41;10.60;99.90
23207;DHT22;11773;52.570;13.052;2022-12-26T02:01:12;10.60;99.90
23207;DHT22;11773;52.570;13.052;2022-12-26T02:03:43;10.60;99.90
23207;DHT22;11773;52.570;13.052;2022-12-26T02:06:32;10.50;99.90
23207;DHT22;11773;52.570;13.052;2022-12-26T02:09:02;10.60;99.90
23207;DHT22;11773;52.570;13.052;2022-12-26T02:11:38;10.60;99.90
23207;DHT22;11773;52.570;13.052;2022-12-26T02:14:13;10.70;99.90
23207;DHT22;11773;52.570;13.052;2022-12-26T02:16:42;10.60;99.90
23207;DHT22;11773;52.570;13.052;2022-12-26T02:22:05;10.60;99.90
23207;DHT22;11773;52.570;13.052;2022-12-26T02:25:01;10.60;99.90
23207;DHT22;11773;52.570;13.052;2022-12-26T02:27:56;10.50;99.90
23207;DHT22;11773;52.570;13.052;2022-12-26T02:30:37;10.50;99.90
23207;DHT22;11773;52.570;13.052;2022-12-26T02:39:33;10.60;99.90
23207;DHT22;11773;52.570;13.052;2022-12-26T02:45:39;10.60;99.90
23207;DHT22;11773;52.570;13.052;2022-12-26T02:48:43;10.60;99.90
23207;DHT22;11773;52.570;13.052;2022-12-26T02:54:48;10.70;99.90
23207;DHT22;11773;52.570;13.052;2022-12-26T02:58:12;10.70;99.90
23207;DHT22;11773;52.570;13.052;2022-12-26T03:01:05;10.70;99.90
23207;DHT22;11773;52.570;13.052;2022-12-26T03:03:55;10.70;99.90
23207;DHT22;11773;52.570;13.052;2022-12-26T03:06:50;10.60;99.90
23207;DHT22;11773;52.570;13.052;2022-12-26T03:09:38;10.70;99.90
23207;DHT22;11773;52.570;13.052;2022-12-26T03:12:38;10.70;99.90
23207;DHT22;11773;52.570;13.052;2022-12-26T03:15:33;10.80;99.90
23207;DHT22;11773;52.570;13.052;2022-12-26T03:18:24;10.70;99.90
23207;DHT22;11773;52.570;13.052;2022-12-26T03:20:59;10.70;99.90
23207;DHT22;11773;52.570;13.052;2022-12-26T03:23:30;10.80;99.90
23207;DHT22;11773;52.570;13.052;2022-12-26T03:26:04;10.80;99.90
23207;DHT22;11773;52.570;13.052;2022-12-26T03:28:55;10.80;99.90
23207;DHT22;11773;52.570;13.052;2022-12-26T03:31:26;10.90;99.90
23207;DHT22;11773;52.570;13.052;2022-12-26T03:34:04;10.80;99.90
23207;DHT22;11773;52.570;13.052;2022-12-26T03:40:03;10.90;99.90
23207;DHT22;11773;52.570;13.052;2022-12-26T03:46:54;10.90;99.90
23207;DHT22;11773;52.570;13.052;2022-12-26T03:49:55;10.90;99.90
23207;DHT22;11773;52.570;13.052;2022-12-26T03:53:04;10.80;99.90
23207;DHT22;11773;52.570;13.052;2022-12-26T03:59:16;10.90;99.90
23207;DHT22;11773;52.570;13.052;2022-12-26T04:02:19;10.90;99.90
23207;DHT22;11773;52.570;13.052;2022-12-26T04:05:08;10.90;99.90
23207;DHT22;11773;52.570;13.052;2022-12-26T04:08:00;10.90;99.90
23207;DHT22;11773;52.570;13.052;2022-12-26T04:10:54;11.00;99.90
23207;DHT22;11773;52.570;13.052;2022-12-26T04:13:55;10.90;99.90
23207;DHT22;11773;52.570;13.052;2022-12-26T04:16:59;10.90;99.90
23207;DHT22;11773;52.570;13.052;2022-12-26T04:22:42;10.90;99.90
23207;DHT22;11773;52.570;13.052;2022-12-26T04:25:30;11.00;99.90
23207;DHT22;11773;52.570;13.052;2022-12-26T04:28:22;11.00;99.90
23207;DHT22;11773;52.570;13.052;2022-12-26T04:31:30;11.00;99.90
23207;DHT22;11773;52.570;13.052;2022-12-26T04:34:41;11.00;99.90
23207;DHT22;11773;52.570;13.052;2022-12-26T04:37:33;11.00;99.90
23207;DHT22;11773;52.570;13.052;2022-12-26T04:40:26;11.00;99.90
23207;DHT22;11773;52.570;13.052;2022-12-26T04:43:16;11.00;99.90
23207;DHT22;11773;52.570;13.052;2022-12-26T04:46:06;11.10;99.90
23207;DHT22;11773;52.570;13.052;2022-12-26T04:48:42;11.10;99.90
23207;DHT22;11773;52.570;13.052;2022-12-26T04:51:30;11.00;99.90
23207;DHT22;11773;52.570;13.052;2022-12-26T04:54:00;11.00;99.90
23207;DHT22;11773;52.570;13.052;2022-12-26T04:56:30;11.10;99.90
23207;DHT22;11773;52.570;13.052;2022-12-26T04:59:00;11.10;99.90
23207;DHT22;11773;52.570;13.052;2022-12-26T05:01:29;11.10;99.90
23207;DHT22;11773;52.570;13.052;2022-12-26T05:04:17;11.10;99.90
23207;DHT22;11773;52.570;13.052;2022-12-26T05:07:15;11.20;99.90
23207;DHT22;11773;52.570;13.052;2022-12-26T05:10:04;11.20;99.90
23207;DHT22;11773;52.570;13.052;2022-12-26T05:12:35;11.10;99.90
23207;DHT22;11773;52.570;13.052;2022-12-26T05:15:05;11.10;99.90
23207;DHT22;11773;52.570;13.052;2022-12-26T05:17:35;11.10;99.90
23207;DHT22;11773;52.570;13.052;2022-12-26T05:20:22;11.20;99.90
23207;DHT22;11773;52.570;13.052;2022-12-26T05:23:00;11.20;99.90
23207;DHT22;11773;52.570;13.052;2022-12-26T05:25:48;11.10;99.90
23207;DHT22;11773;52.570;13.052;2022-12-26T05:28:36;11.10;99.90
23207;DHT22;11773;52.570;13.052;2022-12-26T05:31:11;11.10;99.90
23207;DHT22;11773;52.570;13.052;2022-12-26T05:33:43;11.10;99.90
23207;DHT22;11773;52.570;13.052;2022-12-26T05:36:33;11.10;99.90
23207;DHT22;11773;52.570;13.052;2022-12-26T05:39:08;11.00;99.90
23207;DHT22;11773;52.570;13.052;2022-12-26T05:41:37;11.10;99.90
23207;DHT22;11773;52.570;13.052;2022-12-26T05:44:07;11.10;99.90
23207;DHT22;11773;52.570;13.052;2022-12-26T05:46:38;11.20;99.90
23207;DHT22;11773;52.570;13.052;2022-12-26T05:49:09;11.20;99.90
23207;DHT22;11773;52.570;13.052;2022-12-26T05:51:39;11.10;99.90
23207;DHT22;11773;52.570;13.052;2022-12-26T05:54:08;11.10;99.90
23207;DHT22;11773;52.570;13.052;2022-12-26T05:56:38;11.20;99.90
23207;DHT22;11773;52.570;13.052;2022-12-26T05:59:09;11.10;99.90
23207;DHT22;11773;52.570;13.052;2022-12-26T06:01:38;11.20;99.90
23207;DHT22;11773;52.570;13.052;2022-12-26T06:04:08;11.20;99.90
23207;DHT22;11773;52.570;13.052;2022-12-26T06:06:38;11.20;99.90
23207;DHT22;11773;52.570;13.052;2022-12-26T06:09:07;11.10;99.90
23207;DHT22;11773;52.570;13.052;2022-12-26T06:11:37;11.10;99.90
23207;DHT22;11773;52.570;13.052;2022-12-26T06:14:08;11.20;99.90
23207;DHT22;11773;52.570;13.052;2022-12-26T06:16:38;11.20;99.90
23207;DHT22;11773;52.570;13.052;2022-12-26T06:19:07;11.20;99.90
23207;DHT22;11773;52.570;13.052;2022-12-26T06:21:37;11.20;99.90
23207;DHT22;11773;52.570;13.052;2022-12-26T06:24:06;11.20;99.90
23207;DHT22;11773;52.570;13.052;2022-12-26T06:26:36;11.20;99.90
23207;DHT22;11773;52.570;13.052;2022-12-26T06:29:06;11.20;99.90
23207;DHT22;11773;52.570;13.052;2022-12-26T06:31:36;11.20;99.90
23207;DHT22;11773;52.570;13.052;2022-12-26T06:34:06;11.20;99.90
23207;DHT22;11773;52.570;13.052;2022-12-26T06:36:38;11.20;99.90
23207;DHT22;11773;52.570;13.052;2022-12-26T06:39:07;11.20;99.90
23207;DHT22;11773;52.570;13.052;2022-12-26T06:41:37;11.20;99.90
23207;DHT22;11773;52.570;13.052;2022-12-26T06:44:09;11.20;99.90
23207;DHT22;11773;52.570;13.052;2022-12-26T06:46:40;11.20;99.90
23207;DHT22;11773;52.570;13.052;2022-12-26T06:49:10;11.20;99.90
23207;DHT22;11773;52.570;13.052;2022-12-26T06:51:40;11.20;99.90
23207;DHT22;11773;52.570;13.052;2022-12-26T06:54:11;11.20;99.90
23207;DHT22;11773;52.570;13.052;2022-12-26T06:56:40;11.20;99.90
23207;DHT22;11773;52.570;13.052;2022-12-26T06:59:10;11.30;99.90
23207;DHT22;11773;52.570;13.052;2022-12-26T07:01:40;11.30;99.90
23207;DHT22;11773;52.570;13.052;2022-12-26T07:04:11;11.20;99.90
23207;DHT22;11773;52.570;13.052;2022-12-26T07:06:41;11.30;99.90
23207;DHT22;11773;52.570;13.052;2022-12-26T07:09:13;11.20;99.90
23207;DHT22;11773;52.570;13.052;2022-12-26T07:11:47;11.20;99.90
23207;DHT22;11773;52.570;13.052;2022-12-26T07:14:17;11.30;99.90
23207;DHT22;11773;52.570;13.052;2022-12-26T07:16:47;11.20;99.90
23207;DHT22;11773;52.570;13.052;2022-12-26T07:19:16;11.20;99.90
23207;DHT22;11773;52.570;13.052;2022-12-26T07:21:46;11.10;99.90
23207;DHT22;11773;52.570;13.052;2022-12-26T07:24:18;11.10;99.90
23207;DHT22;11773;52.570;13.052;2022-12-26T07:26:49;11.10;99.90
23207;DHT22;11773;52.570;13.052;2022-12-26T07:29:18;11.30;99.90
23207;DHT22;11773;52.570;13.052;2022-12-26T07:31:49;11.20;99.90
23207;DHT22;11773;52.570;13.052;2022-12-26T07:34:18;11.20;99.90
23207;DHT22;11773;52.570;13.052;2022-12-26T07:36:49;11.20;99.90
23207;DHT22;11773;52.570;13.052;2022-12-26T07:39:19;11.20;99.90
23207;DHT22;11773;52.570;13.052;2022-12-26T07:41:48;11.20;99.90
23207;DHT22;11773;52.570;13.052;2022-12-26T07:44:29;11.20;99.90
23207;DHT22;11773;52.570;13.052;2022-12-26T07:47:00;11.20;99.90
23207;DHT22;11773;52.570;13.052;2022-12-26T07:49:30;11.20;99.90
23207;DHT22;11773;52.570;13.052;2022-12-26T07:51:59;11.20;99.90
23207;DHT22;11773;52.570;13.052;2022-12-26T07:54:29;11.20;99.90
23207;DHT22;11773;52.570;13.052;2022-12-26T07:56:58;11.20;99.90
23207;DHT22;11773;52.570;13.052;2022-12-26T07:59:30;11.20;99.90
23207;DHT22;11773;52.570;13.052;2022-12-26T08:01:59;11.20;99.90
23207;DHT22;11773;52.570;13.052;2022-12-26T08:04:31;11.20;99.90
23207;DHT22;11773;52.570;13.052;2022-12-26T08:07:00;11.20;99.90
23207;DHT22;11773;52.570;13.052;2022-12-26T08:09:30;11.30;99.90
23207;DHT22;11773;52.570;13.052;2022-12-26T08:11:59;11.30;99.90
23207;DHT22;11773;52.570;13.052;2022-12-26T08:14:29;11.40;99.90
23207;DHT22;11773;52.570;13.052;2022-12-26T08:16:58;11.30;99.90
23207;DHT22;11773;52.570;13.052;2022-12-26T08:19:28;11.30;99.90
23207;DHT22;11773;52.570;13.052;2022-12-26T08:21:57;11.30;99.90
23207;DHT22;11773;52.570;13.052;2022-12-26T08:24:27;11.40;99.90
23207;DHT22;11773;52.570;13.052;2022-12-26T08:26:56;11.30;99.90
23207;DHT22;11773;52.570;13.052;2022-12-26T08:29:26;11.30;99.90
23207;DHT22;11773;52.570;13.052;2022-12-26T08:31:55;11.30;99.90
23207;DHT22;11773;52.570;13.052;2022-12-26T08:34:30;11.40;99.90
23207;DHT22;11773;52.570;13.052;2022-12-26T08:37:02;11.40;99.90
23207;DHT22;11773;52.570;13.052;2022-12-26T08:39:31;11.30;99.90
23207;DHT22;11773;52.570;13.052;2022-12-26T08:42:01;11.30;99.90
23207;DHT22;11773;52.570;13.052;2022-12-26T08:44:30;11.30;99.90
23207;DHT22;11773;52.570;13.052;2022-12-26T08:47:00;11.30;99.90
23207;DHT22;11773;52.570;13.052;2022-12-26T08:49:29;11.40;99.90
23207;DHT22;11773;52.570;13.052;2022-12-26T08:51:59;11.40;99.90
23207;DHT22;11773;52.570;13.052;2022-12-26T08:54:28;11.40;99.90
23207;DHT22;11773;52.570;13.052;2022-12-26T08:56:58;11.40;99.90
23207;DHT22;11773;52.570;13.052;2022-12-26T08:59:28;11.30;99.90
23207;DHT22;11773;52.570;13.052;2022-12-26T09:01:57;11.40;99.90
23207;DHT22;11773;52.570;13.052;2022-12-26T09:04:27;11.40;99.90
23207;DHT22;11773;52.570;13.052;2022-12-26T09:06:56;11.30;99.90
23207;DHT22;11773;52.570;13.052;2022-12-26T09:09:26;11.40;99.90
23207;DHT22;11773;52.570;13.052;2022-12-26T09:11:55;11.40;99.90
23207;DHT22;11773;52.570;13.052;2022-12-26T09:14:25;11.40;99.90
23207;DHT22;11773;52.570;13.052;2022-12-26T09:16:54;11.40;99.90
23207;DHT22;11773;52.570;13.052;2022-12-26T09:19:23;11.50;99.90
23207;DHT22;11773;52.570;13.052;2022-12-26T09:21:55;11.40;99.90
23207;DHT22;11773;52.570;13.052;2022-12-26T09:24:43;11.40;99.90
23207;DHT22;11773;52.570;13.052;2022-12-26T09:27:12;11.50;99.90
23207;DHT22;11773;52.570;13.052;2022-12-26T09:29:41;11.50;99.90
23207;DHT22;11773;52.570;13.052;2022-12-26T09:32:11;11.60;99.90
23207;DHT22;11773;52.570;13.052;2022-12-26T09:34:40;11.60;99.90
23207;DHT22;11773;52.570;13.052;2022-12-26T09:37:10;11.60;99.90
23207;DHT22;11773;52.570;13.052;2022-12-26T09:39:39;11.60;99.90
23207;DHT22;11773;52.570;13.052;2022-12-26T09:45:12;11.60;99.90
23207;DHT22;11773;52.570;13.052;2022-12-26T09:47:58;11.70;99.90
23207;DHT22;11773;52.570;13.052;2022-12-26T09:50:34;11.50;99.90
23207;DHT22;11773;52.570;13.052;2022-12-26T09:53:25;11.70;99.90
23207;DHT22;11773;52.570;13.052;2022-12-26T09:55:56;11.70;99.90
23207;DHT22;11773;52.570;13.052;2022-12-26T09:58:40;11.70;99.90
23207;DHT22;11773;52.570;13.052;2022-12-26T10:01:16;11.70;99.90
23207;DHT22;11773;52.570;13.052;2022-12-26T10:03:55;11.70;99.90
23207;DHT22;11773;52.570;13.052;2022-12-26T10:06:37;11.70;99.90
23207;DHT22;11773;52.570;13.052;2022-12-26T10:09:31;11.80;99.90
23207;DHT22;11773;52.570;13.052;2022-12-26T10:12:20;11.80;99.90
23207;DHT22;11773;52.570;13.052;2022-12-26T10:15:33;11.70;99.90
23207;DHT22;11773;52.570;13.052;2022-12-26T10:18:19;11.70;99.90
23207;DHT22;11773;52.570;13.052;2022-12-26T10:21:06;11.80;99.90
23207;DHT22;11773;52.570;13.052;2022-12-26T10:23:46;11.80;99.90
23207;DHT22;11773;52.570;13.052;2022-12-26T10:26:44;11.70;99.90
23207;DHT22;11773;52.570;13.052;2022-12-26T10:29:13;11.70;99.90
23207;DHT22;11773;52.570;13.052;2022-12-26T10:31:55;11.70;99.90
23207;DHT22;11773;52.570;13.052;2022-12-26T10:34:39;11.70;99.90
23207;DHT22;11773;52.570;13.052;2022-12-26T10:37:30;11.60;99.90
23207;DHT22;11773;52.570;13.052;2022-12-26T10:40:19;11.60;99.90
23207;DHT22;11773;52.570;13.052;2022-12-26T10:42:56;11.70;99.90
23207;DHT22;11773;52.570;13.052;2022-12-26T10:48:07;11.60;99.90
23207;DHT22;11773;52.570;13.052;2022-12-26T10:50:45;11.60;99.90
23207;DHT22;11773;52.570;13.052;2022-12-26T10:53:16;11.60;99.90
23207;DHT22;11773;52.570;13.052;2022-12-26T10:55:46;11.60;99.90
23207;DHT22;11773;52.570;13.052;2022-12-26T10:58:18;11.60;99.90
23207;DHT22;11773;52.570;13.052;2022-12-26T11:00:50;11.60;99.90
23207;DHT22;11773;52.570;13.052;2022-12-26T11:03:20;11.50;99.90
23207;DHT22;11773;52.570;13.052;2022-12-26T11:05:52;11.50;99.90
23207;DHT22;11773;52.570;13.052;2022-12-26T11:08:31;11.50;99.90
23207;DHT22;11773;52.570;13.052;2022-12-26T11:11:30;11.50;99.90
23207;DHT22;11773;52.570;13.052;2022-12-26T11:14:03;11.50;99.90
23207;DHT22;11773;52.570;13.052;2022-12-26T11:16:29;11.50;99.90
23207;DHT22;11773;52.570;13.052;2022-12-26T11:19:01;11.40;99.90
23207;DHT22;11773;52.570;13.052;2022-12-26T11:21:32;11.50;99.90
23207;DHT22;11773;52.570;13.052;2022-12-26T11:24:10;11.50;99.90
23207;DHT22;11773;52.570;13.052;2022-12-26T11:26:47;11.50;99.90
23207;DHT22;11773;52.570;13.052;2022-12-26T11:29:19;11.50;99.90
23207;DHT22;11773;52.570;13.052;2022-12-26T11:31:56;11.50;99.90
23207;DHT22;11773;52.570;13.052;2022-12-26T11:34:35;11.40;99.90
23207;DHT22;11773;52.570;13.052;2022-12-26T11:37:26;11.40;99.90
23207;DHT22;11773;52.570;13.052;2022-12-26T11:40:00;11.60;99.90
23207;DHT22;11773;52.570;13.052;2022-12-26T11:42:29;11.60;99.90
23207;DHT22;11773;52.570;13.052;2022-12-26T11:45:00;11.70;99.90
23207;DHT22;11773;52.570;13.052;2022-12-26T11:47:32;11.70;99.90
23207;DHT22;11773;52.570;13.052;2022-12-26T11:50:10;11.80;99.90
23207;DHT22;11773;52.570;13.052;2022-12-26T11:52:51;11.70;99.90
23207;DHT22;11773;52.570;13.052;2022-12-26T11:55:25;11.70;99.90
23207;DHT22;11773;52.570;13.052;2022-12-26T12:03:48;11.80;99.90
23207;DHT22;11773;52.570;13.052;2022-12-26T12:09:30;11.60;99.90
23207;DHT22;11773;52.570;13.052;2022-12-26T12:12:24;11.60;99.90
23207;DHT22;11773;52.570;13.052;2022-12-26T12:14:58;11.60;99.90
23207;DHT22;11773;52.570;13.052;2022-12-26T12:20:35;11.50;99.90
23207;DHT22;11773;52.570;13.052;2022-12-26T12:23:09;11.40;99.90
23207;DHT22;11773;52.570;13.052;2022-12-26T12:26:10;11.40;99.90
23207;DHT22;11773;52.570;13.052;2022-12-26T12:31:37;11.40;99.90
23207;DHT22;11773;52.570;13.052;2022-12-26T12:34:24;11.50;99.90
23207;DHT22;11773;52.570;13.052;2022-12-26T12:39:55;11.50;99.90
23207;DHT22;11773;52.570;13.052;2022-12-26T12:42:46;11.50;99.90
23207;DHT22;11773;52.570;13.052;2022-12-26T12:45:25;11.40;99.90
23207;DHT22;11773;52.570;13.052;2022-12-26T12:51:30;11.50;99.90
23207;DHT22;11773;52.570;13.052;2022-12-26T12:57:19;11.50;99.90
23207;DHT22;11773;52.570;13.052;2022-12-26T13:00:13;11.40;99.90
23207;DHT22;11773;52.570;13.052;2022-12-26T13:03:03;11.40;99.90
23207;DHT22;11773;52.570;13.052;2022-12-26T13:06:04;11.30;99.90
23207;DHT22;11773;52.570;13.052;2022-12-26T13:08:42;11.40;99.90
23207;DHT22;11773;52.570;13.052;2022-12-26T13:11:37;11.40;99.90
23207;DHT22;11773;52.570;13.052;2022-12-26T13:16:46;11.30;99.90
23207;DHT22;11773;52.570;13.052;2022-12-26T13:19:22;11.40;99.90
23207;DHT22;11773;52.570;13.052;2022-12-26T13:21:57;11.40;99.90
23207;DHT22;11773;52.570;13.052;2022-12-26T13:24:33;11.40;99.90
23207;DHT22;11773;52.570;13.052;2022-12-26T13:27:30;11.50;99.90
23207;DHT22;11773;52.570;13.052;2022-12-26T13:30:08;11.40;99.90
23207;DHT22;11773;52.570;13.052;2022-12-26T13:32:36;11.40;99.90
23207;DHT22;11773;52.570;13.052;2022-12-26T13:35:45;11.40;99.90
23207;DHT22;11773;52.570;13.052;2022-12-26T13:37:58;11.50;99.90
23207;DHT22;11773;52.570;13.052;2022-12-26T13:40:29;11.40;99.90
23207;DHT22;11773;52.570;13.052;2022-12-26T13:43:13;11.30;99.90
23207;DHT22;11773;52.570;13.052;2022-12-26T13:45:57;11.40;99.90
23207;DHT22;11773;52.570;13.052;2022-12-26T13:51:04;11.30;99.90
23207;DHT22;11773;52.570;13.052;2022-12-26T13:53:39;11.30;99.90
23207;DHT22;11773;52.570;13.052;2022-12-26T13:59:09;11.30;99.90
23207;DHT22;11773;52.570;13.052;2022-12-26T14:01:51;11.30;99.90
23207;DHT22;11773;52.570;13.052;2022-12-26T14:04:53;11.30;99.90
23207;DHT22;11773;52.570;13.052;2022-12-26T14:07:33;11.30;99.90
23207;DHT22;11773;52.570;13.052;2022-12-26T14:16:26;11.10;99.90
23207;DHT22;11773;52.570;13.052;2022-12-26T14:19:33;11.00;99.90
23207;DHT22;11773;52.570;13.052;2022-12-26T14:22:23;11.00;99.90
23207;DHT22;11773;52.570;13.052;2022-12-26T14:27:52;11.00;99.90
23207;DHT22;11773;52.570;13.052;2022-12-26T14:30:29;11.00;99.90
23207;DHT22;11773;52.570;13.052;2022-12-26T14:33:16;10.90;99.90
23207;DHT22;11773;52.570;13.052;2022-12-26T14:36:02;10.90;99.90
23207;DHT22;11773;52.570;13.052;2022-12-26T14:38:53;10.80;99.90
23207;DHT22;11773;52.570;13.052;2022-12-26T14:41:23;10.80;99.90
23207;DHT22;11773;52.570;13.052;2022-12-26T14:46:56;10.90;99.90
23207;DHT22;11773;52.570;13.052;2022-12-26T14:55:02;10.90;99.90
23207;DHT22;11773;52.570;13.052;2022-12-26T14:57:48;10.90;99.90
23207;DHT22;11773;52.570;13.052;2022-12-26T15:05:36;11.00;99.90
23207;DHT22;11773;52.570;13.052;2022-12-26T15:08:33;11.20;99.90
23207;DHT22;11773;52.570;13.052;2022-12-26T15:12:19;11.10;99.90
23207;DHT22;11773;52.570;13.052;2022-12-26T15:17:30;11.00;99.90
23207;DHT22;11773;52.570;13.052;2022-12-26T15:23:02;10.90;99.90
23207;DHT22;11773;52.570;13.052;2022-12-26T15:25:54;11.00;99.90
23207;DHT22;11773;52.570;13.052;2022-12-26T15:34:41;10.90;99.90
23207;DHT22;11773;52.570;13.052;2022-12-26T15:43:37;10.90;99.90
23207;DHT22;11773;52.570;13.052;2022-12-26T15:46:18;11.00;99.90
23207;DHT22;11773;52.570;13.052;2022-12-26T15:55:14;10.90;99.90
23207;DHT22;11773;52.570;13.052;2022-12-26T16:00:53;11.00;99.90
23207;DHT22;11773;52.570;13.052;2022-12-26T16:03:46;10.90;99.90
23207;DHT22;11773;52.570;13.052;2022-12-26T16:06:48;10.90;99.90
23207;DHT22;11773;52.570;13.052;2022-12-26T16:09:44;11.00;99.90
23207;DHT22;11773;52.570;13.052;2022-12-26T16:12:32;11.00;99.90
23207;DHT22;11773;52.570;13.052;2022-12-26T16:17:43;10.80;99.90
23207;DHT22;11773;52.570;13.052;2022-12-26T16:20:19;10.70;99.90
23207;DHT22;11773;52.570;13.052;2022-12-26T16:22:52;10.80;99.90
23207;DHT22;11773;52.570;13.052;2022-12-26T16:25:24;10.80;99.90
23207;DHT22;11773;52.570;13.052;2022-12-26T16:27:55;10.80;99.90
23207;DHT22;11773;52.570;13.052;2022-12-26T16:30:29;10.80;99.90
23207;DHT22;11773;52.570;13.052;2022-12-26T16:33:02;10.90;99.90
23207;DHT22;11773;52.570;13.052;2022-12-26T16:35:34;10.80;99.90
23207;DHT22;11773;52.570;13.052;2022-12-26T16:38:15;10.80;99.90
23207;DHT22;11773;52.570;13.052;2022-12-26T16:40:49;10.80;99.90
23207;DHT22;11773;52.570;13.052;2022-12-26T16:43:27;10.80;99.90
23207;DHT22;11773;52.570;13.052;2022-12-26T16:46:03;10.70;99.90
23207;DHT22;11773;52.570;13.052;2022-12-26T16:48:35;10.80;99.90
23207;DHT22;11773;52.570;13.052;2022-12-26T16:51:36;10.90;99.90
23207;DHT22;11773;52.570;13.052;2022-12-26T16:53:45;10.80;99.90
23207;DHT22;11773;52.570;13.052;2022-12-26T16:56:24;10.70;99.90
23207;DHT22;11773;52.570;13.052;2022-12-26T16:59:01;10.80;99.90
23207;DHT22;11773;52.570;13.052;2022-12-26T17:01:32;10.70;99.90
23207;DHT22;11773;52.570;13.052;2022-12-26T17:04:14;10.70;99.90
23207;DHT22;11773;52.570;13.052;2022-12-26T17:06:47;10.60;99.90
23207;DHT22;11773;52.570;13.052;2022-12-26T17:09:28;10.70;99.90
23207;DHT22;11773;52.570;13.052;2022-12-26T17:12:01;10.70;99.90
23207;DHT22;11773;52.570;13.052;2022-12-26T17:14:39;10.70;99.90
23207;DHT22;11773;52.570;13.052;2022-12-26T17:17:25;10.70;99.90
23207;DHT22;11773;52.570;13.052;2022-12-26T17:20:27;10.60;99.90
23207;DHT22;11773;52.570;13.052;2022-12-26T17:22:51;10.60;99.90
23207;DHT22;11773;52.570;13.052;2022-12-26T17:25:32;10.50;99.90
23207;DHT22;11773;52.570;13.052;2022-12-26T17:30:49;10.40;99.90
23207;DHT22;11773;52.570;13.052;2022-12-26T17:33:23;10.50;99.90
23207;DHT22;11773;52.570;13.052;2022-12-26T17:36:05;10.40;99.90
23207;DHT22;11773;52.570;13.052;2022-12-26T17:38:41;10.30;99.90
23207;DHT22;11773;52.570;13.052;2022-12-26T17:41:14;10.40;99.90
23207;DHT22;11773;52.570;13.052;2022-12-26T17:43:46;10.30;99.90
23207;DHT22;11773;52.570;13.052;2022-12-26T17:46:17;10.30;99.90
23207;DHT22;11773;52.570;13.052;2022-12-26T17:48:46;10.30;99.90
23207;DHT22;11773;52.570;13.052;2022-12-26T17:51:17;10.20;99.90
23207;DHT22;11773;52.570;13.052;2022-12-26T17:53:49;10.20;99.90
23207;DHT22;11773;52.570;13.052;2022-12-26T17:56:21;10.20;99.90
23207;DHT22;11773;52.570;13.052;2022-12-26T17:58:53;10.20;99.90
23207;DHT22;11773;52.570;13.052;2022-12-26T18:01:22;10.20;99.90
23207;DHT22;11773;52.570;13.052;2022-12-26T18:03:52;10.10;99.90
23207;DHT22;11773;52.570;13.052;2022-12-26T18:06:23;10.10;99.90
23207;DHT22;11773;52.570;13.052;2022-12-26T18:08:53;10.10;99.90
23207;DHT22;11773;52.570;13.052;2022-12-26T18:11:23;10.10;99.90
23207;DHT22;11773;52.570;13.052;2022-12-26T18:13:53;10.00;99.90
23207;DHT22;11773;52.570;13.052;2022-12-26T18:16:22;10.00;99.90
23207;DHT22;11773;52.570;13.052;2022-12-26T18:18:53;10.00;99.90
23207;DHT22;11773;52.570;13.052;2022-12-26T18:21:23;10.10;99.90
23207;DHT22;11773;52.570;13.052;2022-12-26T18:23:52;10.00;99.90